sensor_id;sensor_type;location;lat;lon;timestamp;temperature;humidity
18593;DHT22;9426;54.118;17.948;2024-01-11T00:00:07;0.00;99.90
18593;DHT22;9426;54.118;17.948;2024-01-11T00:05:31;0.00;99.90
18593;DHT22;9426;54.118;17.948;2024-01-11T00:10:56;0.00;99.90
18593;DHT22;9426;54.118;17.948;2024-01-11T00:16:20;0.00;99.90
18593;DHT22;9426;54.118;17.948;2024-01-11T00:21:44;0.00;99.90
18593;DHT22;9426;54.118;17.948;2024-01-11T00:27:10;0.00;99.90
18593;DHT22;9426;54.118;17.948;2024-01-11T00:32:33;0.10;99.90
18593;DHT22;9426;54.118;17.948;2024-01-11T00:37:58;0.10;99.90
18593;DHT22;9426;54.118;17.948;2024-01-11T00:43:23;0.10;99.90
18593;DHT22;9426;54.118;17.948;2024-01-11T00:48:47;0.10;99.90
18593;DHT22;9426;54.118;17.948;2024-01-11T00:54:13;0.10;99.90
18593;DHT22;9426;54.118;17.948;2024-01-11T00:59:40;0.10;99.90
18593;DHT22;9426;54.118;17.948;2024-01-11T01:05:03;0.10;99.90
18593;DHT22;9426;54.118;17.948;2024-01-11T01:10:29;0.10;99.90
18593;DHT22;9426;54.118;17.948;2024-01-11T01:15:54;0.10;99.90
18593;DHT22;9426;54.118;17.948;2024-01-11T01:21:18;0.10;99.90
18593;DHT22;9426;54.118;17.948;2024-01-11T01:26:42;0.10;99.90
18593;DHT22;9426;54.118;17.948;2024-01-11T01:32:07;0.10;99.90
18593;DHT22;9426;54.118;17.948;2024-01-11T01:37:30;0.10;99.90
18593;DHT22;9426;54.118;17.948;2024-01-11T01:42:58;0.10;99.90
18593;DHT22;9426;54.118;17.948;2024-01-11T01:48:24;0.10;99.90
18593;DHT22;9426;54.118;17.948;2024-01-11T01:53:49;0.10;99.90
18593;DHT22;9426;54.118;17.948;2024-01-11T01:59:15;0.10;99.90
18593;DHT22;9426;54.118;17.948;2024-01-11T02:04:40;0.10;99.90
18593;DHT22;9426;54.118;17.948;2024-01-11T02:10:05;0.10;99.90
18593;DHT22;9426;54.118;17.948;2024-01-11T02:15:30;0.10;99.90
18593;DHT22;9426;54.118;17.948;2024-01-11T02:20:56;0.20;99.90
18593;DHT22;9426;54.118;17.948;2024-01-11T02:26:22;0.10;99.90
18593;DHT22;9426;54.118;17.948;2024-01-11T02:31:45;0.10;99.90
18593;DHT22;9426;54.118;17.948;2024-01-11T02:37:10;0.10;99.90
18593;DHT22;9426;54.118;17.948;2024-01-11T02:42:37;0.10;99.90
18593;DHT22;9426;54.118;17.948;2024-01-11T02:48:02;0.10;99.90
18593;DHT22;9426;54.118;17.948;2024-01-11T02:53:25;0.10;99.90
18593;DHT22;9426;54.118;17.948;2024-01-11T02:58:50;0.10;99.90
18593;DHT22;9426;54.118;17.948;2024-01-11T03:04:14;0.10;99.90
18593;DHT22;9426;54.118;17.948;2024-01-11T03:09:39;0.00;99.90
18593;DHT22;9426;54.118;17.948;2024-01-11T03:15:04;0.10;99.90
18593;DHT22;9426;54.118;17.948;2024-01-11T03:20:28;0.00;99.90
18593;DHT22;9426;54.118;17.948;2024-01-11T03:25:51;0.10;99.90
18593;DHT22;9426;54.118;17.948;2024-01-11T03:31:17;0.00;99.90
18593;DHT22;9426;54.118;17.948;2024-01-11T03:36:40;0.00;99.90
18593;DHT22;9426;54.118;17.948;2024-01-11T03:42:04;0.10;99.90
18593;DHT22;9426;54.118;17.948;2024-01-11T03:47:30;0.10;99.90
18593;DHT22;9426;54.118;17.948;2024-01-11T03:52:53;0.10;99.90
18593;DHT22;9426;54.118;17.948;2024-01-11T03:58:17;0.10;99.90
18593;DHT22;9426;54.118;17.948;2024-01-11T04:03:43;0.10;99.90
18593;DHT22;9426;54.118;17.948;2024-01-11T04:09:06;0.10;99.90
18593;DHT22;9426;54.118;17.948;2024-01-11T04:14:30;0.10;99.90
18593;DHT22;9426;54.118;17.948;2024-01-11T04:19:55;0.10;99.90
18593;DHT22;9426;54.118;17.948;2024-01-11T04:25:19;0.10;99.90
18593;DHT22;9426;54.118;17.948;2024-01-11T04:30:43;0.10;99.90
18593;DHT22;9426;54.118;17.948;2024-01-11T04:36:08;0.10;99.90
18593;DHT22;9426;54.118;17.948;2024-01-11T04:41:32;0.10;99.90
18593;DHT22;9426;54.118;17.948;2024-01-11T04:46:55;0.20;99.90
18593;DHT22;9426;54.118;17.948;2024-01-11T04:52:21;0.20;99.90
18593;DHT22;9426;54.118;17.948;2024-01-11T04:57:46;0.20;99.90
18593;DHT22;9426;54.118;17.948;2024-01-11T05:03:10;0.20;99.90
18593;DHT22;9426;54.118;17.948;2024-01-11T05:08:35;0.20;99.90
18593;DHT22;9426;54.118;17.948;2024-01-11T05:13:59;0.20;99.90
18593;DHT22;9426;54.118;17.948;2024-01-11T05:19:23;0.20;99.90
18593;DHT22;9426;54.118;17.948;2024-01-11T05:24:48;0.20;99.90
18593;DHT22;9426;54.118;17.948;2024-01-11T05:30:12;0.20;99.90
18593;DHT22;9426;54.118;17.948;2024-01-11T05:35:36;0.30;99.90
18593;DHT22;9426;54.118;17.948;2024-01-11T05:41:02;0.20;99.90
18593;DHT22;9426;54.118;17.948;2024-01-11T05:46:26;0.20;99.90
18593;DHT22;9426;54.118;17.948;2024-01-11T05:51:50;0.30;99.90
18593;DHT22;9426;54.118;17.948;2024-01-11T05:57:15;0.20;99.90
18593;DHT22;9426;54.118;17.948;2024-01-11T06:02:39;0.20;99.90
18593;DHT22;9426;54.118;17.948;2024-01-11T06:08:04;0.30;99.90
18593;DHT22;9426;54.118;17.948;2024-01-11T06:13:29;0.20;99.90
18593;DHT22;9426;54.118;17.948;2024-01-11T06:18:53;0.20;99.90
18593;DHT22;9426;54.118;17.948;2024-01-11T06:24:17;0.30;99.90
18593;DHT22;9426;54.118;17.948;2024-01-11T06:29:42;0.20;99.90
18593;DHT22;9426;54.118;17.948;2024-01-11T06:35:07;0.20;99.90
18593;DHT22;9426;54.118;17.948;2024-01-11T06:40:31;0.30;99.90
18593;DHT22;9426;54.118;17.948;2024-01-11T06:45:56;0.30;99.90
18593;DHT22;9426;54.118;17.948;2024-01-11T06:51:21;0.30;99.90
18593;DHT22;9426;54.118;17.948;2024-01-11T06:56:45;0.30;99.90
18593;DHT22;9426;54.118;17.948;2024-01-11T07:02:10;0.30;99.90
18593;DHT22;9426;54.118;17.948;2024-01-11T07:07:34;0.30;99.90
18593;DHT22;9426;54.118;17.948;2024-01-11T07:12:58;0.30;99.90
18593;DHT22;9426;54.118;17.948;2024-01-11T07:18:23;0.30;99.90
18593;DHT22;9426;54.118;17.948;2024-01-11T07:23:47;0.30;99.90
18593;DHT22;9426;54.118;17.948;2024-01-11T07:29:11;0.30;99.90
18593;DHT22;9426;54.118;17.948;2024-01-11T07:34:36;0.30;99.90
18593;DHT22;9426;54.118;17.948;2024-01-11T07:40:01;0.40;99.90
18593;DHT22;9426;54.118;17.948;2024-01-11T07:45:26;0.30;99.90
18593;DHT22;9426;54.118;17.948;2024-01-11T07:50:51;0.30;99.90
18593;DHT22;9426;54.118;17.948;2024-01-11T07:56:15;0.30;99.90
18593;DHT22;9426;54.118;17.948;2024-01-11T08:01:40;0.40;99.90
18593;DHT22;9426;54.118;17.948;2024-01-11T08:07:05;0.40;99.90
18593;DHT22;9426;54.118;17.948;2024-01-11T08:12:29;0.40;99.90
18593;DHT22;9426;54.118;17.948;2024-01-11T08:17:54;0.40;99.90
18593;DHT22;9426;54.118;17.948;2024-01-11T08:23:19;0.40;99.90
18593;DHT22;9426;54.118;17.948;2024-01-11T08:28:43;0.40;99.90
18593;DHT22;9426;54.118;17.948;2024-01-11T08:34:07;0.40;99.90
18593;DHT22;9426;54.118;17.948;2024-01-11T08:39:32;0.40;99.90
18593;DHT22;9426;54.118;17.948;2024-01-11T08:44:56;0.50;99.90
18593;DHT22;9426;54.118;17.948;2024-01-11T08:50:20;0.50;99.90
18593;DHT22;9426;54.118;17.948;2024-01-11T08:55:46;0.50;99.90
18593;DHT22;9426;54.118;17.948;2024-01-11T09:01:11;0.50;99.90
18593;DHT22;9426;54.118;17.948;2024-01-11T09:06:34;0.50;99.90
18593;DHT22;9426;54.118;17.948;2024-01-11T09:12:00;0.50;99.90
18593;DHT22;9426;54.118;17.948;2024-01-11T09:17:24;0.60;99.90
18593;DHT22;9426;54.118;17.948;2024-01-11T09:22:48;0.60;99.90
18593;DHT22;9426;54.118;17.948;2024-01-11T09:28:14;0.70;99.90
18593;DHT22;9426;54.118;17.948;2024-01-11T09:33:37;0.60;99.90
18593;DHT22;9426;54.118;17.948;2024-01-11T09:39:01;0.70;99.90
18593;DHT22;9426;54.118;17.948;2024-01-11T09:44:27;0.70;99.90
18593;DHT22;9426;54.118;17.948;2024-01-11T09:49:53;0.70;99.90
18593;DHT22;9426;54.118;17.948;2024-01-11T09:55:17;0.80;99.90
18593;DHT22;9426;54.118;17.948;2024-01-11T10:00:43;0.70;99.90
18593;DHT22;9426;54.118;17.948;2024-01-11T10:06:07;0.80;99.90
18593;DHT22;9426;54.118;17.948;2024-01-11T10:11:32;0.80;99.90
18593;DHT22;9426;54.118;17.948;2024-01-11T10:16:58;0.80;99.90
18593;DHT22;9426;54.118;17.948;2024-01-11T10:22:22;0.80;99.90
18593;DHT22;9426;54.118;17.948;2024-01-11T10:27:46;0.80;99.90
18593;DHT22;9426;54.118;17.948;2024-01-11T10:33:11;0.80;99.90
18593;DHT22;9426;54.118;17.948;2024-01-11T10:38:37;0.80;99.90
18593;DHT22;9426;54.118;17.948;2024-01-11T10:44:03;0.90;99.90
18593;DHT22;9426;54.118;17.948;2024-01-11T10:49:30;0.80;99.90
18593;DHT22;9426;54.118;17.948;2024-01-11T10:54:56;0.80;99.90
18593;DHT22;9426;54.118;17.948;2024-01-11T11:00:21;0.80;99.90
18593;DHT22;9426;54.118;17.948;2024-01-11T11:05:48;0.90;99.90
18593;DHT22;9426;54.118;17.948;2024-01-11T11:11:13;1.00;99.90
18593;DHT22;9426;54.118;17.948;2024-01-11T11:16:37;0.90;99.90
18593;DHT22;9426;54.118;17.948;2024-01-11T11:22:04;1.00;99.90
18593;DHT22;9426;54.118;17.948;2024-01-11T11:27:27;1.00;99.90
18593;DHT22;9426;54.118;17.948;2024-01-11T11:32:51;1.00;99.90
18593;DHT22;9426;54.118;17.948;2024-01-11T11:38:22;1.00;99.90
18593;DHT22;9426;54.118;17.948;2024-01-11T11:43:48;1.00;99.90
18593;DHT22;9426;54.118;17.948;2024-01-11T11:49:11;1.00;99.90
18593;DHT22;9426;54.118;17.948;2024-01-11T11:54:37;1.10;99.90
18593;DHT22;9426;54.118;17.948;2024-01-11T12:00:03;1.00;99.90
18593;DHT22;9426;54.118;17.948;2024-01-11T12:05:38;1.00;99.90
18593;DHT22;9426;54.118;17.948;2024-01-11T12:11:03;1.00;99.90
18593;DHT22;9426;54.118;17.948;2024-01-11T12:16:27;1.10;99.90
18593;DHT22;9426;54.118;17.948;2024-01-11T12:21:51;1.10;99.90
18593;DHT22;9426;54.118;17.948;2024-01-11T12:27:16;1.10;99.90
18593;DHT22;9426;54.118;17.948;2024-01-11T12:32:40;1.10;99.90
18593;DHT22;9426;54.118;17.948;2024-01-11T12:38:05;1.10;99.90
18593;DHT22;9426;54.118;17.948;2024-01-11T12:43:30;1.10;99.90
18593;DHT22;9426;54.118;17.948;2024-01-11T12:48:54;1.20;99.90
18593;DHT22;9426;54.118;17.948;2024-01-11T12:54:18;1.30;99.90
18593;DHT22;9426;54.118;17.948;2024-01-11T12:59:42;1.20;99.90
18593;DHT22;9426;54.118;17.948;2024-01-11T13:05:07;1.30;99.90
18593;DHT22;9426;54.118;17.948;2024-01-11T13:10:31;1.20;99.90
18593;DHT22;9426;54.118;17.948;2024-01-11T13:15:56;1.20;99.90
18593;DHT22;9426;54.118;17.948;2024-01-11T13:21:20;1.20;99.90
18593;DHT22;9426;54.118;17.948;2024-01-11T13:26:45;1.20;99.90
18593;DHT22;9426;54.118;17.948;2024-01-11T13:32:09;1.20;99.90
18593;DHT22;9426;54.118;17.948;2024-01-11T13:37:33;1.20;99.90
18593;DHT22;9426;54.118;17.948;2024-01-11T13:42:58;1.10;99.90
18593;DHT22;9426;54.118;17.948;2024-01-11T13:48:23;1.20;99.90
18593;DHT22;9426;54.118;17.948;2024-01-11T13:53:47;1.10;99.90
18593;DHT22;9426;54.118;17.948;2024-01-11T13:59:10;1.10;99.90
18593;DHT22;9426;54.118;17.948;2024-01-11T14:04:37;1.20;99.90
18593;DHT22;9426;54.118;17.948;2024-01-11T14:10:01;1.20;99.90
18593;DHT22;9426;54.118;17.948;2024-01-11T14:15:25;1.20;99.90
18593;DHT22;9426;54.118;17.948;2024-01-11T14:20:50;1.10;99.90
18593;DHT22;9426;54.118;17.948;2024-01-11T14:26:14;1.20;99.90
18593;DHT22;9426;54.118;17.948;2024-01-11T14:31:38;1.20;99.90
18593;DHT22;9426;54.118;17.948;2024-01-11T14:37:04;1.20;99.90
18593;DHT22;9426;54.118;17.948;2024-01-11T14:42:28;1.30;99.90
18593;DHT22;9426;54.118;17.948;2024-01-11T14:47:52;1.30;99.90
18593;DHT22;9426;54.118;17.948;2024-01-11T14:53:18;1.30;99.90
18593;DHT22;9426;54.118;17.948;2024-01-11T14:58:42;1.30;99.90
18593;DHT22;9426;54.118;17.948;2024-01-11T15:04:06;1.40;99.90
18593;DHT22;9426;54.118;17.948;2024-01-11T15:09:31;1.30;99.90
18593;DHT22;9426;54.118;17.948;2024-01-11T15:14:55;1.40;99.90
18593;DHT22;9426;54.118;17.948;2024-01-11T15:20:19;1.20;99.90
18593;DHT22;9426;54.118;17.948;2024-01-11T15:25:46;1.20;99.90
18593;DHT22;9426;54.118;17.948;2024-01-11T15:31:10;1.20;99.90
18593;DHT22;9426;54.118;17.948;2024-01-11T15:36:34;1.30;99.90
18593;DHT22;9426;54.118;17.948;2024-01-11T15:42:01;1.20;99.90
18593;DHT22;9426;54.118;17.948;2024-01-11T15:47:25;1.30;99.90
18593;DHT22;9426;54.118;17.948;2024-01-11T15:52:48;1.20;99.90
18593;DHT22;9426;54.118;17.948;2024-01-11T15:58:14;1.30;99.90
18593;DHT22;9426;54.118;17.948;2024-01-11T16:03:38;1.30;99.90
18593;DHT22;9426;54.118;17.948;2024-01-11T16:09:02;1.30;99.90
18593;DHT22;9426;54.118;17.948;2024-01-11T16:14:30;1.30;99.90
18593;DHT22;9426;54.118;17.948;2024-01-11T16:19:53;1.40;99.90
18593;DHT22;9426;54.118;17.948;2024-01-11T16:25:18;1.30;99.90
18593;DHT22;9426;54.118;17.948;2024-01-11T16:30:43;1.10;99.90
18593;DHT22;9426;54.118;17.948;2024-01-11T16:36:08;1.20;99.90
18593;DHT22;9426;54.118;17.948;2024-01-11T16:41:32;1.30;99.90
18593;DHT22;9426;54.118;17.948;2024-01-11T16:46:57;1.10;99.90
18593;DHT22;9426;54.118;17.948;2024-01-11T16:52:21;1.20;99.90
18593;DHT22;9426;54.118;17.948;2024-01-11T16:57:46;1.00;99.90
18593;DHT22;9426;54.118;17.948;2024-01-11T17:03:12;0.70;99.90
18593;DHT22;9426;54.118;17.948;2024-01-11T17:08:36;0.50;99.90
18593;DHT22;9426;54.118;17.948;2024-01-11T17:14:00;0.50;99.90
18593;DHT22;9426;54.118;17.948;2024-01-11T17:19:25;0.40;99.90
18593;DHT22;9426;54.118;17.948;2024-01-11T17:24:49;0.40;99.90
18593;DHT22;9426;54.118;17.948;2024-01-11T17:30:13;0.30;99.90
18593;DHT22;9426;54.118;17.948;2024-01-11T17:35:38;0.20;99.90
18593;DHT22;9426;54.118;17.948;2024-01-11T17:41:02;0.30;99.90
18593;DHT22;9426;54.118;17.948;2024-01-11T17:46:26;0.40;99.90
18593;DHT22;9426;54.118;17.948;2024-01-11T17:51:52;0.20;99.90
18593;DHT22;9426;54.118;17.948;2024-01-11T17:57:18;0.10;99.90
18593;DHT22;9426;54.118;17.948;2024-01-11T18:02:41;-0.10;99.90
18593;DHT22;9426;54.118;17.948;2024-01-11T18:08:07;-0.30;99.90
18593;DHT22;9426;54.118;17.948;2024-01-11T18:13:31;-0.10;99.90
18593;DHT22;9426;54.118;17.948;2024-01-11T18:18:55;-0.30;99.90
18593;DHT22;9426;54.118;17.948;2024-01-11T18:24:20;-0.20;99.90
18593;DHT22;9426;54.118;17.948;2024-01-11T18:29:43;-0.20;99.90
18593;DHT22;9426;54.118;17.948;2024-01-11T18:35:08;-0.20;99.90
18593;DHT22;9426;54.118;17.948;2024-01-11T18:40:33;-0.20;99.90
18593;DHT22;9426;54.118;17.948;2024-01-11T18:45:58;-0.40;99.90
18593;DHT22;9426;54.118;17.948;2024-01-11T18:51:22;-0.30;99.90
18593;DHT22;9426;54.118;17.948;2024-01-11T18:56:49;-0.50;99.90
18593;DHT22;9426;54.118;17.948;2024-01-11T19:02:13;-0.50;99.90
18593;DHT22;9426;54.118;17.948;2024-01-11T19:07:37;-0.40;99.90
18593;DHT22;9426;54.118;17.948;2024-01-11T19:13:03;-0.40;99.90
18593;DHT22;9426;54.118;17.948;2024-01-11T19:18:27;-0.50;99.90
18593;DHT22;9426;54.118;17.948;2024-01-11T19:23:51;-0.40;99.90
18593;DHT22;9426;54.118;17.948;2024-01-11T19:29:17;-0.60;99.90
18593;DHT22;9426;54.118;17.948;2024-01-11T19:34:41;-0.70;99.90
18593;DHT22;9426;54.118;17.948;2024-01-11T19:40:06;-0.60;99.90
18593;DHT22;9426;54.118;17.948;2024-01-11T19:45:32;-0.70;99.90
18593;DHT22;9426;54.118;17.948;2024-01-11T19:50:56;-0.80;99.90
18593;DHT22;9426;54.118;17.948;2024-01-11T19:56:21;-0.80;99.90
18593;DHT22;9426;54.118;17.948;2024-01-11T20:01:47;-0.70;99.90
18593;DHT22;9426;54.118;17.948;2024-01-11T20:07:11;-0.90;99.90
18593;DHT22;9426;54.118;17.948;2024-01-11T20:12:36;-1.00;99.90
18593;DHT22;9426;54.118;17.948;2024-01-11T20:18:02;-1.00;99.90
18593;DHT22;9426;54.118;17.948;2024-01-11T20:23:32;-1.10;99.90
18593;DHT22;9426;54.118;17.948;2024-01-11T20:29:03;-1.10;99.90
18593;DHT22;9426;54.118;17.948;2024-01-11T20:34:28;-1.10;99.90
18593;DHT22;9426;54.118;17.948;2024-01-11T20:39:52;-1.10;99.90
18593;DHT22;9426;54.118;17.948;2024-01-11T20:45:17;-1.00;99.90
18593;DHT22;9426;54.118;17.948;2024-01-11T20:50:43;-0.50;99.90
18593;DHT22;9426;54.118;17.948;2024-01-11T20:56:07;-0.70;99.90
18593;DHT22;9426;54.118;17.948;2024-01-11T21:01:32;-0.80;99.90
18593;DHT22;9426;54.118;17.948;2024-01-11T21:06:59;-0.80;99.90
18593;DHT22;9426;54.118;17.948;2024-01-11T21:12:24;-0.60;99.90
18593;DHT22;9426;54.118;17.948;2024-01-11T21:17:47;-0.80;99.90
18593;DHT22;9426;54.118;17.948;2024-01-11T21:23:13;-0.70;99.90
18593;DHT22;9426;54.118;17.948;2024-01-11T21:28:37;-0.80;99.90
18593;DHT22;9426;54.118;17.948;2024-01-11T21:34:02;-0.80;99.90
18593;DHT22;9426;54.118;17.948;2024-01-11T21:46:07;-1.10;99.90
18593;DHT22;9426;54.118;17.948;2024-01-11T21:51:30;-1.00;99.90
18593;DHT22;9426;54.118;17.948;2024-01-11T21:56:55;-0.90;99.90
18593;DHT22;9426;54.118;17.948;2024-01-11T22:02:22;-1.00;99.90
18593;DHT22;9426;54.118;17.948;2024-01-11T22:07:46;-0.90;99.90
18593;DHT22;9426;54.118;17.948;2024-01-11T22:13:11;-0.90;99.90
18593;DHT22;9426;54.118;17.948;2024-01-11T22:18:37;-0.90;99.90
18593;DHT22;9426;54.118;17.948;2024-01-11T22:24:03;-0.90;99.90
18593;DHT22;9426;54.118;17.948;2024-01-11T22:29:28;-1.10;99.90
18593;DHT22;9426;54.118;17.948;2024-01-11T22:34:53;-1.20;99.90
18593;DHT22;9426;54.118;17.948;2024-01-11T22:40:17;-1.30;99.90
18593;DHT22;9426;54.118;17.948;2024-01-11T22:45:41;-1.30;99.90
18593;DHT22;9426;54.118;17.948;2024-01-11T22:51:06;-1.60;99.90
18593;DHT22;9426;54.118;17.948;2024-01-11T22:56:31;-1.60;99.90
18593;DHT22;9426;54.118;17.948;2024-01-11T23:01:58;-1.60;99.90
18593;DHT22;9426;54.118;17.948;2024-01-11T23:07:24;-1.50;99.90
18593;DHT22;9426;54.118;17.948;2024-01-11T23:12:48;-1.70;99.90
18593;DHT22;9426;54.118;17.948;2024-01-11T23:18:12;-1.70;99.90
18593;DHT22;9426;54.118;17.948;2024-01-11T23:23:37;-1.90;99.90
18593;DHT22;9426;54.118;17.948;2024-01-11T23:29:01;-1.90;99.90
18593;DHT22;9426;54.118;17.948;2024-01-11T23:34:25;-2.00;99.90
18593;DHT22;9426;54.118;17.948;2024-01-11T23:39:50;-2.10;99.90
18593;DHT22;9426;54.118;17.948;2024-01-11T23:45:14;-2.10;99.90
18593;DHT22;9426;54.118;17.948;2024-01-11T23:50:37;-2.20;99.90
18593;DHT22;9426;54.118;17.948;2024-01-11T23:56:03;-2.40;99.90
